Darstellungsparameter: Aktuell verwendete Einstellungen:
Skalierung der Graphiken ... ?
xyx+y,   Skalierungsfaktor:      Skalierung: Modus: x, Faktor: 1
Darstellungszeitraum ... ?
Vom - - bis: - -   Zeitraum: 25.02.2019 - 25.02.2019
Min/Max/Avg-Anzeige ... ?
Zeige MMA aktuell
Zeige MMA Monat
Zeige MMA alles
Zeige --A aktuell
Zeige --A Monat
Zeige --A alles
Keine MMA-Anzeige
MMA:
Keine MMA-Graphiken
MMA-Basis: 25.02.2019 - 25.02.2019
Quicknavigation für Darstellung... ?
Tage:      1T, 2T, 3T, 5T -1T -2T -3T -5T +1T +2T +3T +5T
Wochen: 1W, 2W, 3W -1W -2W -3W +1W +2W +3W
Monate: 1M, 3M, 6M -1M -3M -6M +1M +3M +6M
Jahre:    1J, 3J, 5J, 10J -1J -3J -5J -10J +1J +3J +5J +10J
Nutze für die Darstellung ... ?
Originaldaten oder Mittelwerte auf ...
Stundenbasis Tagesbasis Wochenbasis
Monatsbasis Jahresbasis      Datenbasis: Original-Daten
Darstellen als:
Statistik (Auto) Statistik J:M      Darstellung:
Zur Graphik,    zurück zur Übersicht aller Sensoren.
 
Tabellarische Datenbersicht: ?
 
Sensor: Nr:Datum:Temp:Feuchte:Taupunkt:
Aussen-T/F 1 25-02-2019 00:00:00 1.8 C 76 % -1.97 C
2 25-02-2019 00:05:00 1.8 C 77 % -1.79 C
3 25-02-2019 00:10:00 1.7 C 77 % -1.89 C
4 25-02-2019 00:15:00 1.4 C 77 % -2.18 C
5 25-02-2019 00:20:00 1.3 C 78 % -2.1 C
6 25-02-2019 00:25:00 1.2 C 79 % -2.03 C
7 25-02-2019 00:30:00 1.1 C 80 % -1.96 C
8 25-02-2019 00:35:00 0.9 C 80 % -2.15 C
9 25-02-2019 00:40:00 0.8 C 80 % -2.25 C
10 25-02-2019 00:45:00 0.7 C 81 % -2.18 C
11 25-02-2019 00:50:00 0.7 C 81 % -2.18 C
12 25-02-2019 00:55:00 0.7 C 81 % -2.18 C
13 25-02-2019 01:00:00 1 C 81 % -1.88 C
14 25-02-2019 01:05:00 1.2 C 80 % -1.86 C
15 25-02-2019 01:10:00 1.3 C 80 % -1.76 C
16 25-02-2019 01:15:00 1.1 C 80 % -1.96 C
17 25-02-2019 01:20:00 0.9 C 81 % -1.98 C
18 25-02-2019 01:25:00 0.9 C 81 % -1.98 C
19 25-02-2019 01:30:00 0.9 C 81 % -1.98 C
20 25-02-2019 01:35:00 1 C 81 % -1.88 C
21 25-02-2019 01:40:00 0.9 C 81 % -1.98 C
22 25-02-2019 01:45:00 0.7 C 81 % -2.18 C
23 25-02-2019 01:50:00 0.6 C 82 % -2.11 C
24 25-02-2019 01:55:00 0.6 C 83 % -1.95 C
25 25-02-2019 02:00:00 0.7 C 83 % -1.85 C
Sensor: Nr:Datum:Temp:Feuchte:Taupunkt:
Aussen-T/F 26 25-02-2019 02:05:00 0.6 C 82 % -2.11 C
27 25-02-2019 02:10:00 0.4 C 82 % -2.3 C
28 25-02-2019 02:15:00 0.3 C 83 % -2.24 C
29 25-02-2019 02:20:00 0.2 C 83 % -2.34 C
30 25-02-2019 02:25:00 0 C 83 % -2.53 C
31 25-02-2019 02:30:00 -0.1 C 84 % -2.47 C
32 25-02-2019 02:35:00 -0.1 C 84 % -2.47 C
33 25-02-2019 02:40:00 -0.2 C 85 % -2.41 C
34 25-02-2019 02:45:00 -0.2 C 85 % -2.41 C
35 25-02-2019 02:50:00 -0.1 C 85 % -2.31 C
36 25-02-2019 02:55:00 0.1 C 85 % -2.11 C
37 25-02-2019 03:00:00 0.2 C 84 % -2.18 C
38 25-02-2019 03:05:00 0.3 C 84 % -2.08 C
39 25-02-2019 03:10:00 0.3 C 84 % -2.08 C
40 25-02-2019 03:15:00 0.3 C 83 % -2.24 C
41 25-02-2019 03:20:00 0.2 C 83 % -2.34 C
42 25-02-2019 03:25:00 0.1 C 83 % -2.44 C
43 25-02-2019 03:30:00 -0.1 C 83 % -2.63 C
44 25-02-2019 03:35:00 -0.2 C 84 % -2.57 C
45 25-02-2019 03:40:00 -0.2 C 85 % -2.41 C
46 25-02-2019 03:45:00 -0.3 C 85 % -2.51 C
47 25-02-2019 03:50:00 -0.3 C 85 % -2.51 C
48 25-02-2019 03:55:00 -0.4 C 85 % -2.61 C
49 25-02-2019 04:00:00 -0.5 C 85 % -2.71 C
50 25-02-2019 04:05:00 -0.5 C 86 % -2.55 C
Sensor: Nr:Datum:Temp:Feuchte:Taupunkt:
Aussen-T/F 51 25-02-2019 04:10:00 -0.5 C 86 % -2.55 C
52 25-02-2019 04:15:00 -0.5 C 86 % -2.55 C
53 25-02-2019 04:20:00 -0.6 C 86 % -2.65 C
54 25-02-2019 04:25:00 -0.6 C 86 % -2.65 C
55 25-02-2019 04:30:00 -0.6 C 86 % -2.65 C
56 25-02-2019 04:35:00 -0.6 C 86 % -2.65 C
57 25-02-2019 04:40:00 -0.6 C 86 % -2.65 C
58 25-02-2019 04:45:00 -0.7 C 86 % -2.74 C
59 25-02-2019 04:50:00 -0.7 C 87 % -2.59 C
60 25-02-2019 04:55:00 -0.6 C 87 % -2.49 C
61 25-02-2019 05:00:00 -0.6 C 87 % -2.49 C
62 25-02-2019 05:05:00 -0.6 C 87 % -2.49 C
63 25-02-2019 05:10:00 -0.6 C 87 % -2.49 C
64 25-02-2019 05:15:00 -0.6 C 87 % -2.49 C
65 25-02-2019 05:20:00 -0.7 C 87 % -2.59 C
66 25-02-2019 05:25:00 -0.8 C 87 % -2.69 C
67 25-02-2019 05:30:00 -0.8 C 87 % -2.69 C
68 25-02-2019 05:35:00 -0.8 C 87 % -2.69 C
69 25-02-2019 05:40:00 -0.9 C 87 % -2.79 C
70 25-02-2019 05:45:00 -0.8 C 88 % -2.53 C
71 25-02-2019 05:50:00 -0.7 C 88 % -2.44 C
72 25-02-2019 05:55:00 -0.6 C 88 % -2.34 C
73 25-02-2019 06:00:00 -0.6 C 88 % -2.34 C
74 25-02-2019 06:05:00 -0.6 C 87 % -2.49 C
75 25-02-2019 06:10:00 -0.7 C 87 % -2.59 C
Sensor: Nr:Datum:Temp:Feuchte:Taupunkt:
Aussen-T/F 76 25-02-2019 06:15:00 -0.8 C 87 % -2.69 C
77 25-02-2019 06:20:00 -0.8 C 88 % -2.53 C
78 25-02-2019 06:25:00 -0.8 C 88 % -2.53 C
79 25-02-2019 06:30:00 -0.9 C 88 % -2.63 C
80 25-02-2019 06:35:00 -1 C 88 % -2.73 C
81 25-02-2019 06:40:00 -1.1 C 88 % -2.83 C
82 25-02-2019 06:45:00 -1.1 C 88 % -2.83 C
83 25-02-2019 06:50:00 -1.1 C 89 % -2.68 C
84 25-02-2019 06:55:00 -0.9 C 89 % -2.48 C
85 25-02-2019 07:00:00 -0.9 C 88 % -2.63 C
86 25-02-2019 07:05:00 -1 C 88 % -2.73 C
87 25-02-2019 07:10:00 -1.1 C 88 % -2.83 C
88 25-02-2019 07:15:00 -1.1 C 88 % -2.83 C
89 25-02-2019 07:20:00 -1.2 C 88 % -2.93 C
90 25-02-2019 07:25:00 -1.2 C 88 % -2.93 C
91 25-02-2019 07:30:00 -1.3 C 88 % -3.03 C
92 25-02-2019 07:35:00 -1.3 C 88 % -3.03 C
93 25-02-2019 07:40:00 -1.3 C 88 % -3.03 C
94 25-02-2019 07:45:00 -1.4 C 88 % -3.13 C
95 25-02-2019 07:50:00 -1.4 C 89 % -2.97 C
96 25-02-2019 07:55:00 -1.4 C 89 % -2.97 C
97 25-02-2019 08:00:00 -1.4 C 89 % -2.97 C
98 25-02-2019 08:05:00 -1.3 C 90 % -2.73 C
99 25-02-2019 08:10:00 -1.2 C 90 % -2.63 C
100 25-02-2019 08:15:00 -1.2 C 90 % -2.63 C
Sensor: Nr:Datum:Temp:Feuchte:Taupunkt:
Aussen-T/F 101 25-02-2019 08:20:00 -1.2 C 89 % -2.78 C
102 25-02-2019 08:25:00 -1.3 C 89 % -2.88 C
103 25-02-2019 08:30:00 -1.2 C 90 % -2.63 C
104 25-02-2019 08:35:00 -1.2 C 90 % -2.63 C
105 25-02-2019 08:40:00 -1.1 C 90 % -2.53 C
106 25-02-2019 08:45:00 -1.1 C 90 % -2.53 C
107 25-02-2019 08:50:00 -1.1 C 90 % -2.53 C
108 25-02-2019 08:55:00 -1.1 C 90 % -2.53 C
109 25-02-2019 09:00:00 -0.9 C 90 % -2.33 C
110 25-02-2019 09:05:00 -0.9 C 89 % -2.48 C
111 25-02-2019 09:10:00 -0.9 C 89 % -2.48 C
112 25-02-2019 09:15:00 -0.9 C 89 % -2.48 C
113 25-02-2019 09:20:00 -0.8 C 89 % -2.38 C
114 25-02-2019 09:25:00 -0.8 C 89 % -2.38 C
115 25-02-2019 09:30:00 -0.7 C 89 % -2.28 C
116 25-02-2019 09:35:00 -0.6 C 89 % -2.18 C
117 25-02-2019 09:40:00 -0.6 C 89 % -2.18 C
118 25-02-2019 09:45:00 -0.5 C 88 % -2.24 C
119 25-02-2019 09:50:00 -0.4 C 88 % -2.14 C
120 25-02-2019 09:55:00 -0.3 C 88 % -2.04 C
121 25-02-2019 10:00:00 -0.3 C 88 % -2.04 C
122 25-02-2019 10:05:00 -0.2 C 88 % -1.94 C
123 25-02-2019 10:10:00 0 C 88 % -1.74 C
124 25-02-2019 10:15:00 0.1 C 87 % -1.8 C
125 25-02-2019 10:20:00 0.3 C 87 % -1.6 C
Sensor: Nr:Datum:Temp:Feuchte:Taupunkt:
Aussen-T/F 126 25-02-2019 10:25:00 0.5 C 87 % -1.41 C
127 25-02-2019 10:30:00 0.7 C 88 % -1.05 C
128 25-02-2019 10:35:00 1 C 87 % -0.91 C
129 25-02-2019 10:40:00 1.3 C 87 % -0.62 C
130 25-02-2019 10:45:00 1.7 C 87 % -0.23 C
131 25-02-2019 10:50:00 2.1 C 86 % 0.01 C
132 25-02-2019 10:55:00 2.6 C 85 % 0.34 C
133 25-02-2019 11:00:00 2.9 C 82 % 0.14 C
134 25-02-2019 11:05:00 3.3 C 81 % 0.36 C
135 25-02-2019 11:10:00 3.7 C 82 % 0.92 C
136 25-02-2019 11:15:00 3.9 C 79 % 0.6 C
137 25-02-2019 11:20:00 4.3 C 78 % 0.81 C
138 25-02-2019 11:25:00 4.6 C 77 % 0.92 C
139 25-02-2019 11:30:00 4.9 C 78 % 1.39 C
140 25-02-2019 11:35:00 5.1 C 77 % 1.41 C
141 25-02-2019 11:40:00 5.4 C 77 % 1.7 C
142 25-02-2019 11:45:00 5.8 C 76 % 1.91 C
143 25-02-2019 11:50:00 6 C 74 % 1.73 C
144 25-02-2019 11:55:00 6.2 C 72 % 1.54 C
145 25-02-2019 12:00:00 6.5 C 72 % 1.83 C
146 25-02-2019 12:05:00 6.8 C 72 % 2.12 C
147 25-02-2019 12:10:00 7.3 C 71 % 2.4 C
148 25-02-2019 12:15:00 7.7 C 70 % 2.58 C
149 25-02-2019 12:20:00 8.1 C 69 % 2.77 C
150 25-02-2019 12:25:00 8.4 C 69 % 3.05 C
Sensor: Nr:Datum:Temp:Feuchte:Taupunkt:
Aussen-T/F 151 25-02-2019 12:30:00 8.9 C 68 % 3.32 C
152 25-02-2019 12:35:00 9.5 C 66 % 3.47 C
153 25-02-2019 12:40:00 9.9 C 64 % 3.42 C
154 25-02-2019 12:45:00 10.3 C 62 % 3.35 C
155 25-02-2019 12:50:00 10.5 C 62 % 3.54 C
156 25-02-2019 12:55:00 10.6 C 61 % 3.4 C
157 25-02-2019 13:00:00 10.7 C 61 % 3.5 C
158 25-02-2019 13:05:00 11 C 62 % 4.01 C
159 25-02-2019 13:10:00 11.3 C 60 % 3.83 C
160 25-02-2019 13:15:00 11.6 C 53 % 2.36 C
161 25-02-2019 13:20:00 11.9 C 54 % 2.9 C
162 25-02-2019 13:25:00 12.3 C 47 % 1.33 C
163 25-02-2019 13:30:00 12.7 C 51 % 2.84 C
164 25-02-2019 13:35:00 13.1 C 50 % 2.93 C
165 25-02-2019 13:40:00 13.4 C 53 % 4.03 C
166 25-02-2019 13:45:00 13.8 C 51 % 3.85 C
167 25-02-2019 13:50:00 14.2 C 50 % 3.94 C
168 25-02-2019 13:55:00 14.6 C 48 % 3.73 C
169 25-02-2019 14:00:00 14.8 C 49 % 4.2 C
170 25-02-2019 14:05:00 14.9 C 48 % 4 C
171 25-02-2019 14:10:00 15 C 49 % 4.39 C
172 25-02-2019 14:15:00 15.1 C 48 % 4.18 C
173 25-02-2019 14:20:00 15 C 45 % 3.18 C
174 25-02-2019 14:25:00 14.9 C 45 % 3.09 C
175 25-02-2019 14:30:00 14.7 C 46 % 3.22 C
Sensor: Nr:Datum:Temp:Feuchte:Taupunkt:
Aussen-T/F 176 25-02-2019 14:35:00 14.6 C 46 % 3.12 C
177 25-02-2019 14:40:00 14.4 C 44 % 2.32 C
178 25-02-2019 14:45:00 14.4 C 46 % 2.94 C
179 25-02-2019 14:50:00 14.5 C 46 % 3.03 C
180 25-02-2019 14:55:00 14.6 C 48 % 3.73 C
181 25-02-2019 15:00:00 14.5 C 48 % 3.63 C
182 25-02-2019 15:05:00 14.5 C 46 % 3.03 C
183 25-02-2019 15:10:00 14.5 C 47 % 3.34 C
184 25-02-2019 15:15:00 14.4 C 50 % 4.12 C
185 25-02-2019 15:20:00 14.4 C 47 % 3.25 C
186 25-02-2019 15:25:00 14.3 C 49 % 3.74 C
187 25-02-2019 15:30:00 14.2 C 50 % 3.94 C
188 25-02-2019 15:35:00 14 C 51 % 4.04 C
189 25-02-2019 15:40:00 13.9 C 52 % 4.22 C
190 25-02-2019 15:45:00 13.8 C 52 % 4.13 C
191 25-02-2019 15:50:00 13.8 C 52 % 4.13 C
192 25-02-2019 15:55:00 13.8 C 51 % 3.85 C
193 25-02-2019 16:00:00 13.9 C 51 % 3.94 C
194 25-02-2019 16:05:00 13.9 C 51 % 3.94 C
195 25-02-2019 16:10:00 14.1 C 51 % 4.13 C
196 25-02-2019 16:15:00 14.1 C 46 % 2.67 C
197 25-02-2019 16:20:00 14.3 C 51 % 4.31 C
198 25-02-2019 16:25:00 14.5 C 48 % 3.63 C
199 25-02-2019 16:30:00 14.7 C 50 % 4.4 C
200 25-02-2019 16:35:00 14.7 C 50 % 4.4 C
Sensor: Nr:Datum:Temp:Feuchte:Taupunkt:
Aussen-T/F 201 25-02-2019 16:40:00 14.6 C 48 % 3.73 C
202 25-02-2019 16:45:00 14.6 C 49 % 4.02 C
203 25-02-2019 16:50:00 14.6 C 50 % 4.31 C
204 25-02-2019 16:55:00 14.5 C 50 % 4.21 C
205 25-02-2019 17:00:00 14.4 C 51 % 4.4 C
206 25-02-2019 17:05:00 14.2 C 51 % 4.22 C
207 25-02-2019 17:10:00 14.1 C 52 % 4.4 C
208 25-02-2019 17:15:00 13.9 C 52 % 4.22 C
209 25-02-2019 17:20:00 13.7 C 53 % 4.31 C
210 25-02-2019 17:25:00 13.6 C 53 % 4.21 C
211 25-02-2019 17:30:00 13.6 C 54 % 4.48 C
212 25-02-2019 17:35:00 13.6 C 53 % 4.21 C
213 25-02-2019 17:40:00 13.4 C 53 % 4.03 C
214 25-02-2019 17:45:00 13.3 C 54 % 4.2 C
215 25-02-2019 17:50:00 13.1 C 54 % 4.01 C
216 25-02-2019 17:55:00 12.8 C 55 % 4 C
217 25-02-2019 18:00:00 12.6 C 56 % 4.07 C
218 25-02-2019 18:05:00 12.2 C 56 % 3.69 C
219 25-02-2019 18:10:00 11.8 C 58 % 3.82 C
220 25-02-2019 18:15:00 11.4 C 58 % 3.44 C
221 25-02-2019 18:20:00 11.2 C 59 % 3.5 C
222 25-02-2019 18:25:00 11 C 60 % 3.55 C
223 25-02-2019 18:30:00 10.8 C 60 % 3.36 C
224 25-02-2019 18:35:00 10.7 C 61 % 3.5 C
225 25-02-2019 18:40:00 10.6 C 62 % 3.63 C
Sensor: Nr:Datum:Temp:Feuchte:Taupunkt:
Aussen-T/F 226 25-02-2019 18:45:00 10.4 C 62 % 3.44 C
227 25-02-2019 18:50:00 10.3 C 63 % 3.58 C
228 25-02-2019 18:55:00 10.2 C 63 % 3.48 C
229 25-02-2019 19:00:00 10 C 63 % 3.29 C
230 25-02-2019 19:05:00 9.8 C 64 % 3.32 C
231 25-02-2019 19:10:00 9.6 C 65 % 3.35 C
232 25-02-2019 19:15:00 9.4 C 66 % 3.38 C
233 25-02-2019 19:20:00 9.2 C 67 % 3.4 C
234 25-02-2019 19:25:00 8.9 C 68 % 3.32 C
235 25-02-2019 19:30:00 8.8 C 68 % 3.23 C
236 25-02-2019 19:35:00 8.8 C 68 % 3.23 C
237 25-02-2019 19:40:00 8.8 C 68 % 3.23 C
238 25-02-2019 19:45:00 8.7 C 68 % 3.13 C
239 25-02-2019 19:50:00 8.6 C 68 % 3.04 C
240 25-02-2019 19:55:00 8.3 C 69 % 2.96 C
241 25-02-2019 20:00:00 8.1 C 70 % 2.97 C
242 25-02-2019 20:05:00 8 C 71 % 3.07 C
243 25-02-2019 20:10:00 7.8 C 71 % 2.88 C
244 25-02-2019 20:15:00 7.4 C 72 % 2.69 C
245 25-02-2019 20:20:00 7.1 C 72 % 2.4 C
246 25-02-2019 20:25:00 6.9 C 73 % 2.4 C
247 25-02-2019 20:30:00 6.8 C 74 % 2.5 C
248 25-02-2019 20:35:00 6.8 C 75 % 2.69 C
249 25-02-2019 20:40:00 6.6 C 74 % 2.31 C
250 25-02-2019 20:45:00 6.4 C 74 % 2.11 C
Sensor: Nr:Datum:Temp:Feuchte:Taupunkt:
Aussen-T/F 251 25-02-2019 20:50:00 6.3 C 74 % 2.02 C
252 25-02-2019 20:55:00 6.3 C 75 % 2.2 C
253 25-02-2019 21:00:00 6.3 C 75 % 2.2 C
254 25-02-2019 21:05:00 6.1 C 75 % 2.01 C
255 25-02-2019 21:10:00 5.9 C 75 % 1.82 C
256 25-02-2019 21:15:00 5.9 C 75 % 1.82 C
257 25-02-2019 21:20:00 5.8 C 75 % 1.72 C
258 25-02-2019 21:25:00 5.6 C 76 % 1.71 C
259 25-02-2019 21:30:00 5.4 C 77 % 1.7 C
260 25-02-2019 21:35:00 5.3 C 77 % 1.6 C
261 25-02-2019 21:40:00 5.2 C 78 % 1.69 C
262 25-02-2019 21:45:00 5.2 C 78 % 1.69 C
263 25-02-2019 21:50:00 5.1 C 79 % 1.77 C
264 25-02-2019 21:55:00 5.1 C 79 % 1.77 C
265 25-02-2019 22:00:00 5 C 79 % 1.67 C
266 25-02-2019 22:05:00 5 C 78 % 1.49 C
267 25-02-2019 22:10:00 4.9 C 78 % 1.39 C
268 25-02-2019 22:15:00 4.8 C 79 % 1.47 C
269 25-02-2019 22:20:00 4.8 C 79 % 1.47 C
270 25-02-2019 22:25:00 4.7 C 79 % 1.38 C
271 25-02-2019 22:30:00 4.5 C 79 % 1.18 C
272 25-02-2019 22:35:00 4.4 C 80 % 1.26 C
273 25-02-2019 22:40:00 4.2 C 80 % 1.07 C
274 25-02-2019 22:45:00 4.2 C 80 % 1.07 C
275 25-02-2019 22:50:00 4.1 C 80 % 0.97 C
Sensor: Nr:Datum:Temp:Feuchte:Taupunkt:
Aussen-T/F 276 25-02-2019 22:55:00 4 C 82 % 1.21 C
277 25-02-2019 23:00:00 3.9 C 82 % 1.12 C
278 25-02-2019 23:05:00 3.8 C 83 % 1.19 C
279 25-02-2019 23:10:00 3.8 C 83 % 1.19 C
280 25-02-2019 23:15:00 3.7 C 82 % 0.92 C
281 25-02-2019 23:20:00 3.4 C 82 % 0.63 C
282 25-02-2019 23:25:00 3.2 C 83 % 0.6 C
283 25-02-2019 23:30:00 3.1 C 84 % 0.67 C
284 25-02-2019 23:35:00 3 C 84 % 0.57 C
285 25-02-2019 23:40:00 2.8 C 84 % 0.37 C
286 25-02-2019 23:45:00 2.7 C 85 % 0.44 C
287 25-02-2019 23:50:00 2.8 C 86 % 0.7 C
288 25-02-2019 23:55:00 2.8 C 85 % 0.54 C

Legende:
   Min
   Max


Maximal/Minimal-Werte vom 25.02.2019 - 25.02.2019

Sensor Min Max Avg
Temp
(Aussen-T/F)
-1.4 °C
25-02-2019  07:45:00
15.1 °C
25-02-2019  14:15:00
5.05 °C
Feuchte
(Aussen-T/F)
44 %
25-02-2019  14:40:00
90 %
25-02-2019  08:05:00
74.12 %
Taupunkt
(Aussen-T/F)
-3.13 C
25-02-2019  07:45:00
4.48 C
25-02-2019  17:30:00
0.44 C

Die Daten stammen von einer Davis Vantage Pro 2 Wetter-Station und werden unter Linux mit der Software wview2wettercgi und aufbereitet. Alle Angaben erfolgen ohne Gewähr für ihre Vollständigkeit oder Richtigkeit.
Kontakt: Rainer Krienke krienke@uni-koblenz.de . Meine Webseiten an der Uni Koblenz oder privat.
Version: $Revision: 0.78 $